Bellingham International Airport
KBLI : rendu visible

Aérodrome :











RETROUVEZ-NOUS SUR...

 
LOGIN :

S'inscrire | Disclaimer

   EN    FR    IT 

 









Légende :    VFR   VFR Marginal   IFR   IFR Intensif   IFR Très Intensif
Visi : 
Plafond : 
>= 8 km
>= 3000ft
5 à 8 km
1000 à 3000 ft
1500m à 5 km
500 à 1000 ft
800 à 1500m
200 à 500 ft
< 800m
< 200 ft
Symboles :   Orages  Brouillard  Fortes neiges  Fortes précipitations  Vent > 20 kt






- Altitude de l'aérodrome : 170 ft
- Code IATA : BLI


KBLI - Bellingham International

DERNIER METAR :
  • 242153Z 19005KT 10SM SCT011 BKN030 BKN075 09/07 A2990 RMK AO2 SLP133 T00940072

METARs EXPIRÉS :
  • 242053Z 17008KT 10SM FEW013 BKN030 BKN075 09/07 A2989 RMK AO2 RAE31 SLP128 P0010 60017 T00940072 53021
  • 242027Z 16012KT 8SM -RA FEW013 BKN037 OVC090 09/07 A2988 RMK AO2 P0010 T00890067
  • 242000Z 19008G17KT 2SM RA BR FEW013 BKN041 OVC048 09/07 A2988 RMK AO2 P0003 T00890072

TAF KBLI
Valide du 24 à 18h jusqu'au 25 à 18h UTC


241732Z 2418/2518 16012G20KT P6SM -SHRA SCT020 BKN040
TEMPO 2418/2422 BKN020 OVC040
FM251200 15008KT P6SM -RA OVC040
FM251700 15008KT P6SM VCSH BKN040



MET'MAP, la Météo Aéronautique d'un coup d'oeil ! - Copyright ORBIFLY Décembre 2007 - Disclaimer

ORBIFLY MET'MAP TEAM :

Programmation & Développement : Alexandra Zaïnal
Sur une idée originale de : Baudouin d'Aumeries
Assistance à la programmation : Marc-Olivier Méhu
Soutien technique & logistique : Manuel Goepfert

Contact : metmap@orbifly.com




SOURCES & CREDITS :

   NOAA       Earth
Advisory